Time;durP1;ratioP1;P1;durP2;ratioP2;P2;SDS_P1;SDS_P2;PMS_P1;PMS_P2;Temp;Humidity;BMP_temperature;BMP_pressure;BME280_temperature;BME280_humidity;BME280_pressure;Samples;Min_cycle;Max_cycle;Signal;HPM_P1;HPM_P2
2022/09/13 00:04:03;;;;;;;9.95;8.90;;;24.90;54.70;;;;;;4803012;54;21083;-28
2022/09/13 00:09:04;;;;;;;11.10;8.20;;;25.00;54.70;;;;;;4815041;54;21098;-27
2022/09/13 00:14:05;;;;;;;10.82;8.55;;;25.00;54.80;;;;;;4817623;54;21080;-25
2022/09/13 00:19:05;;;;;;;9.77;8.77;;;24.90;54.90;;;;;;4795544;58;21035;-24
2022/09/13 00:24:07;;;;;;;8.98;8.07;;;25.00;54.90;;;;;;4795484;55;21733;-26
2022/09/13 00:29:08;;;;;;;10.95;8.38;;;25.00;54.90;;;;;;4812305;54;21004;-29
2022/09/13 00:34:08;;;;;;;10.48;8.73;;;25.00;54.90;;;;;;4851887;54;20981;-31
2022/09/13 00:39:10;;;;;;;10.10;8.98;;;24.90;54.90;;;;;;4818277;54;22075;-34
2022/09/13 00:44:49;;;;;;;8.82;7.93;;;25.00;55.00;;;;;;4836461;54;21052;-38
2022/09/13 00:49:55;;;;;;;9.18;7.80;;;24.90;54.80;;;;;;4905659;54;21498;-35
2022/09/13 00:55:07;;;;;;;10.53;8.70;;;25.00;54.80;;;;;;4797547;54;21055;-26
2022/09/13 01:00:15;;;;;;;9.93;8.10;;;25.00;54.90;;;;;;4832593;54;21011;-31
2022/09/13 01:05:18;;;;;;;10.45;8.13;;;24.90;54.80;;;;;;4795709;55;21020;-37
2022/09/13 01:10:19;;;;;;;8.52;7.68;;;24.90;54.90;;;;;;4817684;54;21020;-26
2022/09/13 01:15:21;;;;;;;9.48;8.48;;;25.00;55.00;;;;;;4816888;54;21055;-36
2022/09/13 01:20:49;;;;;;;9.23;7.70;;;24.90;55.00;;;;;;4830685;54;21123;-25
2022/09/13 01:30:34;;;;;;;9.25;7.90;;;24.90;54.90;;;;;;4902742;54;21163;-33
2022/09/13 01:43:17;;;;;;;8.18;7.37;;;24.90;55.00;;;;;;4888111;54;21039;-25
2022/09/13 01:48:54;;;;;;;8.63;7.47;;;24.90;55.00;;;;;;4810547;54;21116;-35
2022/09/13 01:54:33;;;;;;;7.97;7.18;;;24.90;55.10;;;;;;4871618;54;21119;-34
2022/09/13 02:00:10;;;;;;;8.25;7.45;;;24.90;55.00;;;;;;4833351;54;21008;-31
2022/09/13 02:05:59;;;;;;;8.07;7.20;;;24.90;55.00;;;;;;4819238;54;21544;-35
2022/09/13 02:11:09;;;;;;;9.43;7.37;;;24.90;55.00;;;;;;4795367;56;21099;-32
2022/09/13 02:16:26;;;;;;;7.65;6.85;;;24.90;55.00;;;;;;4794532;55;21480;-26
2022/09/13 02:21:30;;;;;;;8.43;7.53;;;24.90;54.90;;;;;;4796170;58;21047;-33
2022/09/13 02:26:33;;;;;;;8.00;7.18;;;24.90;55.00;;;;;;4820642;54;21510;-30
2022/09/13 02:31:41;;;;;;;7.87;7.12;;;24.90;55.00;;;;;;4841470;54;21004;-27
2022/09/13 02:36:45;;;;;;;7.55;6.85;;;24.90;55.00;;;;;;4806455;54;21513;-31
2022/09/13 02:42:40;;;;;;;7.28;6.55;;;24.90;55.50;;;;;;4813337;54;21039;-33
2022/09/13 02:47:58;;;;;;;7.07;6.37;;;24.90;54.90;;;;;;4816417;54;21481;-36
2022/09/13 02:53:15;;;;;;;7.95;7.15;;;24.90;55.00;;;;;;4852718;54;21019;-24
2022/09/13 02:59:08;;;;;;;7.62;6.85;;;24.90;55.00;;;;;;4818506;54;21513;-33
2022/09/13 03:04:09;;;;;;;7.93;6.60;;;24.90;55.00;;;;;;4849515;54;21162;-26
2022/09/13 03:09:10;;;;;;;6.97;6.37;;;24.90;55.00;;;;;;4822497;54;21067;-29
2022/09/13 03:17:52;;;;;;;7.05;6.32;;;24.90;55.00;;;;;;4828920;54;21079;-25
2022/09/13 03:23:37;;;;;;;7.30;6.60;;;24.90;54.90;;;;;;4796322;54;21000;-27
2022/09/13 03:29:08;;;;;;;6.37;5.78;;;24.90;54.90;;;;;;4801520;54;21047;-26
2022/09/13 03:35:45;;;;;;;8.20;6.30;;;24.90;54.80;;;;;;4796408;54;21008;-34
2022/09/13 03:41:33;;;;;;;7.10;6.40;;;24.90;54.80;;;;;;4810069;54;21016;-27
2022/09/13 03:46:39;;;;;;;7.68;6.07;;;24.90;54.80;;;;;;4798464;54;21537;-27
2022/09/13 03:51:44;;;;;;;7.23;6.33;;;24.80;54.70;;;;;;4797437;54;21012;-36
2022/09/13 03:57:09;;;;;;;6.68;6.07;;;24.90;54.70;;;;;;4794358;58;21162;-25
2022/09/13 04:02:10;;;;;;;7.05;6.35;;;24.90;54.30;;;;;;4867247;54;21071;-28
2022/09/13 04:07:28;;;;;;;7.12;6.43;;;24.90;54.50;;;;;;4795294;58;21485;-36
2022/09/13 04:12:30;;;;;;;6.60;6.00;;;24.80;54.40;;;;;;4831504;54;21007;-30
2022/09/13 04:17:30;;;;;;;7.35;6.40;;;24.90;54.50;;;;;;4794747;58;21074;-37
2022/09/13 04:22:33;;;;;;;6.87;6.12;;;24.90;54.40;;;;;;4806878;54;21066;-35
2022/09/13 04:27:37;;;;;;;6.57;5.97;;;24.80;54.30;;;;;;4819804;54;21063;-25
2022/09/13 04:32:38;;;;;;;6.85;5.82;;;24.80;54.30;;;;;;4795053;55;21064;-26
2022/09/13 04:37:39;;;;;;;6.95;5.50;;;24.80;54.30;;;;;;4795573;58;21019;-31
2022/09/13 04:42:40;;;;;;;7.47;6.40;;;24.80;54.30;;;;;;4795633;58;21000;-25
2022/09/13 04:47:40;;;;;;;6.78;6.15;;;24.80;54.10;;;;;;4815214;54;21075;-29
2022/09/13 04:52:41;;;;;;;7.75;6.43;;;24.80;54.20;;;;;;4846968;54;21478;-33
2022/09/13 04:57:42;;;;;;;6.35;5.70;;;24.80;54.10;;;;;;4817141;54;21604;-29
2022/09/13 05:02:43;;;;;;;7.35;6.00;;;24.80;54.10;;;;;;4812005;54;21445;-32
2022/09/13 05:07:44;;;;;;;6.87;6.18;;;24.80;53.80;;;;;;4806760;54;21468;-34
2022/09/13 05:12:44;;;;;;;9.02;5.75;;;24.80;53.90;;;;;;4794729;58;20984;-27
2022/09/13 05:17:45;;;;;;;6.87;5.93;;;24.80;54.00;;;;;;4816297;54;21019;-25
2022/09/13 05:22:46;;;;;;;7.43;6.60;;;24.80;53.80;;;;;;4833809;54;21004;-28
2022/09/13 05:27:47;;;;;;;7.43;6.50;;;24.80;53.90;;;;;;4795866;58;20992;-25
2022/09/13 05:32:49;;;;;;;8.30;7.10;;;24.80;53.90;;;;;;4832063;54;21015;-28
2022/09/13 05:37:50;;;;;;;9.30;6.85;;;24.80;53.80;;;;;;4808531;54;20989;-24
2022/09/13 05:42:52;;;;;;;8.40;7.07;;;24.80;53.80;;;;;;4823481;54;21040;-24
2022/09/13 05:47:53;;;;;;;8.27;7.00;;;24.70;53.80;;;;;;4816199;54;21493;-27
2022/09/13 05:52:55;;;;;;;8.90;6.75;;;24.80;53.80;;;;;;4804377;54;21051;-31
2022/09/13 05:57:56;;;;;;;9.45;7.47;;;24.80;53.70;;;;;;4794326;58;21537;-28
2022/09/13 06:02:57;;;;;;;11.82;7.30;;;24.80;53.80;;;;;;4795101;58;21012;-28
2022/09/13 06:07:58;;;;;;;8.02;7.22;;;24.80;53.70;;;;;;4794939;58;21518;-26
2022/09/13 06:12:59;;;;;;;8.45;7.53;;;24.80;53.70;;;;;;4796516;54;21549;-29
2022/09/13 06:17:59;;;;;;;9.93;7.93;;;24.80;53.70;;;;;;4814359;54;21001;-27
2022/09/13 06:23:00;;;;;;;8.95;8.02;;;24.70;53.60;;;;;;4858596;54;21145;-26
2022/09/13 06:28:01;;;;;;;10.52;8.50;;;24.70;53.60;;;;;;4823128;54;21043;-25
2022/09/13 06:33:03;;;;;;;9.90;8.43;;;24.80;53.60;;;;;;4817850;54;21024;-25
2022/09/13 06:38:04;;;;;;;9.65;8.32;;;24.80;53.60;;;;;;4841667;54;21671;-28
2022/09/13 06:43:05;;;;;;;9.85;8.27;;;24.70;53.60;;;;;;4818653;54;21108;-30
2022/09/13 06:48:05;;;;;;;11.10;9.00;;;24.80;54.30;;;;;;4800252;54;21107;-29
2022/09/13 06:53:06;;;;;;;14.13;11.80;;;24.70;53.50;;;;;;4814290;54;21027;-25
2022/09/13 06:58:07;;;;;;;18.37;13.80;;;24.80;52.00;;;;;;4793407;58;21080;-28
2022/09/13 07:03:08;;;;;;;20.75;14.32;;;24.60;49.40;;;;;;4795117;55;21012;-27
2022/09/13 07:08:08;;;;;;;20.40;12.82;;;24.50;49.40;;;;;;4846239;54;21489;-29
2022/09/13 07:13:09;;;;;;;52.83;17.87;;;24.50;49.50;;;;;;4797248;54;21042;-30
2022/09/13 07:18:10;;;;;;;76.45;21.58;;;24.50;49.70;;;;;;4816150;54;21004;-30
2022/09/13 07:23:11;;;;;;;51.97;18.83;;;24.50;49.80;;;;;;4807130;54;21043;-29
2022/09/13 07:28:12;;;;;;;59.53;27.70;;;24.40;50.00;;;;;;4795708;54;21016;-32
2022/09/13 07:33:13;;;;;;;70.93;34.70;;;24.40;50.10;;;;;;4801442;54;21588;-32
2022/09/13 07:38:14;;;;;;;63.65;32.22;;;24.50;50.20;;;;;;4822615;54;21493;-28
2022/09/13 07:43:15;;;;;;;53.58;27.13;;;24.50;50.20;;;;;;4800904;54;21294;-26
2022/09/13 07:48:16;;;;;;;52.85;26.87;;;24.60;50.50;;;;;;4797003;54;21485;-31
2022/09/13 07:53:17;;;;;;;52.13;28.52;;;24.50;50.70;;;;;;4852310;54;21088;-28
2022/09/13 07:58:17;;;;;;;54.58;32.10;;;24.60;51.10;;;;;;4794528;58;21151;-27
2022/09/13 08:03:18;;;;;;;54.58;35.65;;;24.60;50.70;;;;;;4806759;54;21188;-34
2022/09/13 08:08:19;;;;;;;81.75;37.38;;;24.60;51.20;;;;;;4804388;54;21109;-28
2022/09/13 08:13:21;;;;;;;65.65;34.55;;;24.60;55.30;;;;;;4803574;54;21000;-30
2022/09/13 08:18:22;;;;;;;64.90;32.63;;;24.70;54.40;;;;;;4822487;54;21008;-28
2022/09/13 08:23:23;;;;;;;54.63;28.98;;;24.80;55.30;;;;;;4812052;54;21019;-32
2022/09/13 08:28:24;;;;;;;44.78;31.05;;;24.80;53.70;;;;;;4798120;54;21039;-27
2022/09/13 08:33:27;;;;;;;39.17;26.85;;;24.70;51.60;;;;;;4795929;54;21091;-31
2022/09/13 08:38:28;;;;;;;37.00;25.40;;;24.70;51.40;;;;;;4795192;58;21058;-34
2022/09/13 08:43:55;;;;;;;36.15;25.30;;;24.70;51.70;;;;;;4796212;54;21060;-36
2022/09/13 08:49:04;;;;;;;43.00;29.42;;;24.70;52.20;;;;;;4806095;54;20987;-33
2022/09/13 08:54:05;;;;;;;35.15;25.00;;;24.70;52.00;;;;;;4803824;54;21083;-26
2022/09/13 09:00:37;;;;;;;35.70;24.50;;;24.70;52.10;;;;;;4809289;54;21044;-27
2022/09/13 09:05:49;;;;;;;31.83;22.52;;;24.70;52.30;;;;;;4863598;54;21439;-31
2022/09/13 09:10:54;;;;;;;31.48;22.08;;;24.70;52.40;;;;;;4795773;58;20984;-30
2022/09/13 09:16:04;;;;;;;31.33;22.48;;;24.80;52.40;;;;;;4815767;54;21036;-30
2022/09/13 09:21:12;;;;;;;26.33;17.35;;;24.80;52.30;;;;;;4794945;58;21020;-30
2022/09/13 09:26:31;;;;;;;25.10;16.80;;;24.80;51.40;;;;;;4816723;54;21011;-28
2022/09/13 09:32:38;;;;;;;19.10;16.77;;;24.70;51.10;;;;;;4799546;54;21492;-29
2022/09/13 09:37:41;;;;;;;28.90;20.83;;;24.70;51.10;;;;;;4805265;54;21016;-31
2022/09/13 09:42:48;;;;;;;38.83;22.80;;;24.70;50.90;;;;;;4794921;58;21028;-31
2022/09/13 09:47:49;;;;;;;;;;;24.70;50.30;;;;;;4811730;54;21536;-29
2022/09/13 09:53:02;;;;;;;52.88;29.33;;;24.70;50.30;;;;;;4808429;54;20103;-33
2022/09/13 09:58:07;;;;;;;40.38;23.83;;;24.80;50.40;;;;;;4816000;54;21054;-31
2022/09/13 10:03:18;;;;;;;30.20;18.65;;;24.70;49.40;;;;;;4808586;54;21489;-27
2022/09/13 10:08:32;;;;;;;37.28;25.85;;;24.70;48.10;;;;;;4795137;58;21052;-27
2022/09/13 10:13:37;;;;;;;38.38;25.62;;;24.70;48.30;;;;;;4821834;54;21184;-34
2022/09/13 10:18:38;;;;;;;38.95;24.98;;;24.70;48.50;;;;;;4812022;54;21515;-32
2022/09/13 10:23:38;;;;;;;38.30;23.90;;;24.70;48.60;;;;;;4812114;54;21016;-28
2022/09/13 10:28:57;;;;;;;32.50;22.13;;;24.70;48.20;;;;;;4840170;54;21016;-35
2022/09/13 10:34:01;;;;;;;36.13;25.75;;;24.70;47.60;;;;;;4795705;54;21012;-32
2022/09/13 10:39:16;;;;;;;42.30;28.12;;;24.70;48.00;;;;;;4794670;58;21146;-26
2022/09/13 10:44:38;;;;;;;48.28;31.98;;;24.80;48.00;;;;;;4795640;55;22083;-33
2022/09/13 10:49:54;;;;;;;40.85;28.02;;;24.80;47.50;;;;;;4798380;54;21024;-29
2022/09/13 10:54:55;;;;;;;41.22;28.90;;;24.80;46.70;;;;;;4807160;54;21060;-28
2022/09/13 10:59:56;;;;;;;45.90;33.03;;;24.80;47.00;;;;;;4822379;54;21561;-33
2022/09/13 11:12:21;;;;;;;52.15;31.67;;;24.80;46.90;;;;;;4796403;54;21052;-28
2022/09/13 11:21:18;;;;;;;44.92;28.67;;;24.80;47.50;;;;;;4805717;54;21510;-28
2022/09/13 11:26:47;;;;;;;39.45;30.17;;;24.90;47.70;;;;;;4816929;54;21008;-30
2022/09/13 11:35:05;;;;;;;44.22;29.23;;;24.90;47.90;;;;;;4795251;55;21035;-31
2022/09/13 11:40:36;;;;;;;46.40;28.85;;;24.90;48.20;;;;;;4832085;54;21557;-27
2022/09/13 11:45:58;;;;;;;40.25;27.35;;;24.90;48.30;;;;;;4808271;54;20996;-32
2022/09/13 11:53:59;;;;;;;43.45;27.80;;;25.00;49.00;;;;;;4794979;58;20988;-32
2022/09/13 11:59:48;;;;;;;38.58;26.98;;;25.00;48.00;;;;;;4814537;54;21510;-27
2022/09/13 12:05:43;;;;;;;39.78;25.05;;;25.00;48.00;;;;;;4817136;54;20984;-30
2022/09/13 12:10:58;;;;;;;41.15;26.12;;;25.00;48.00;;;;;;4806998;54;20996;-28
2022/09/13 12:16:07;;;;;;;36.00;26.62;;;25.00;47.70;;;;;;4801507;54;21015;-29
2022/09/13 12:21:12;;;;;;;38.05;27.90;;;25.00;47.80;;;;;;4821872;54;21047;-30
2022/09/13 12:26:25;;;;;;;49.03;35.33;;;25.00;47.60;;;;;;4836300;54;21083;-34
2022/09/13 12:31:29;;;;;;;43.25;31.15;;;25.00;47.30;;;;;;4833761;54;21000;-29
2022/09/13 12:38:33;;;;;;;37.47;27.50;;;25.00;46.90;;;;;;4812804;54;21031;-29
2022/09/13 12:47:30;;;;;;;36.05;25.83;;;25.00;47.10;;;;;;4793552;55;21036;-32
2022/09/13 12:52:58;;;;;;;34.85;26.33;;;25.10;47.30;;;;;;4828491;54;21059;-32
2022/09/13 12:58:35;;;;;;;34.85;24.50;;;25.10;47.50;;;;;;4808465;54;21064;-31
2022/09/13 13:03:44;;;;;;;;;;;25.10;47.40;;;;;;4815359;54;21044;-34
2022/09/13 13:08:51;;;;;;;30.12;23.95;;;25.10;47.80;;;;;;4794408;54;20059;-32
2022/09/13 13:14:01;;;;;;;33.20;25.05;;;25.20;48.20;;;;;;4795230;54;21051;-33
2022/09/13 13:19:31;;;;;;;31.77;25.40;;;25.20;48.20;;;;;;4806447;54;21473;-31
2022/09/13 13:24:45;;;;;;;36.92;26.20;;;25.20;48.30;;;;;;4796125;54;21048;-27
2022/09/13 13:30:41;;;;;;;40.00;26.55;;;25.20;48.60;;;;;;4822230;54;21474;-28
2022/09/13 13:35:44;;;;;;;43.47;30.47;;;25.30;48.80;;;;;;4800807;54;21522;-34
2022/09/13 13:40:49;;;;;;;53.53;33.92;;;25.30;48.90;;;;;;4817151;54;21304;-35
2022/09/13 13:49:42;;;;;;;45.38;32.20;;;25.30;49.00;;;;;;4841018;54;21180;-29
2022/09/13 14:01:53;;;;;;;44.78;32.65;;;25.30;49.00;;;;;;4832644;54;21589;-31
2022/09/13 14:07:33;;;;;;;43.03;32.47;;;25.30;49.20;;;;;;4819957;54;21593;-31
2022/09/13 14:16:02;;;;;;;40.38;29.55;;;25.30;48.90;;;;;;4804761;54;21047;-27
2022/09/13 14:21:23;;;;;;;42.00;31.30;;;25.30;49.30;;;;;;4793281;58;21062;-31
2022/09/13 14:26:24;;;;;;;41.25;30.83;;;25.30;49.50;;;;;;4811070;54;21572;-31
2022/09/13 14:31:25;;;;;;;41.42;30.80;;;25.30;49.70;;;;;;4799997;54;21087;-27
2022/09/13 14:36:26;;;;;;;43.45;29.48;;;25.30;49.90;;;;;;4838339;54;21552;-30
2022/09/13 14:41:36;;;;;;;39.40;29.55;;;25.30;50.70;;;;;;4798470;54;21171;-25
2022/09/13 14:46:41;;;;;;;38.88;28.20;;;25.30;50.40;;;;;;4800788;54;21070;-32
2022/09/13 14:52:05;;;;;;;35.45;27.55;;;25.30;50.60;;;;;;4857324;54;20992;-32
2022/09/13 14:57:19;;;;;;;38.67;29.17;;;25.20;50.90;;;;;;4810337;54;21091;-35
2022/09/13 15:02:23;;;;;;;36.92;28.67;;;25.20;50.80;;;;;;4810897;54;21071;-34
2022/09/13 15:07:33;;;;;;;38.97;27.70;;;25.20;51.10;;;;;;4886984;54;20995;-30
2022/09/13 15:12:34;;;;;;;36.33;27.48;;;25.20;51.10;;;;;;4813663;54;20996;-27
2022/09/13 15:17:54;;;;;;;36.85;28.35;;;25.20;51.30;;;;;;4816101;54;21553;-27
2022/09/13 15:22:55;;;;;;;36.30;28.23;;;25.10;51.40;;;;;;4829167;54;21031;-34
2022/09/13 15:27:56;;;;;;;35.38;27.33;;;25.10;51.50;;;;;;4806608;54;21027;-34
2022/09/13 15:33:35;;;;;;;32.10;25.90;;;25.10;51.80;;;;;;4795954;58;21015;-34
2022/09/13 15:38:36;;;;;;;36.38;27.08;;;25.10;51.80;;;;;;4802992;54;21063;-31
2022/09/13 15:43:37;;;;;;;34.47;27.27;;;25.10;51.90;;;;;;4807497;54;21545;-34
2022/09/13 15:48:39;;;;;;;35.78;27.08;;;25.10;52.00;;;;;;4815831;54;21535;-26
2022/09/13 15:53:41;;;;;;;35.13;26.42;;;25.10;52.10;;;;;;4818747;54;21494;-35
2022/09/13 15:58:42;;;;;;;32.40;26.05;;;25.00;52.30;;;;;;4823548;54;21087;-33
2022/09/13 16:03:44;;;;;;;32.75;26.00;;;25.10;52.30;;;;;;4824725;54;21075;-34
2022/09/13 16:08:44;;;;;;;31.15;25.05;;;25.00;52.30;;;;;;4796539;54;21011;-30
2022/09/13 16:13:45;;;;;;;33.15;25.40;;;25.10;52.50;;;;;;4864304;54;21038;-31
2022/09/13 16:18:46;;;;;;;33.10;26.20;;;25.00;53.10;;;;;;4820207;54;21624;-28
2022/09/13 16:23:47;;;;;;;32.22;25.85;;;25.10;52.60;;;;;;4819951;54;21039;-30
2022/09/13 16:28:48;;;;;;;32.78;25.55;;;25.00;52.70;;;;;;4797366;54;21486;-35
2022/09/13 16:33:48;;;;;;;30.25;24.63;;;25.00;52.70;;;;;;4800437;54;21536;-30
2022/09/13 16:38:49;;;;;;;31.92;25.58;;;25.00;52.80;;;;;;4795649;55;21059;-32
2022/09/13 16:43:50;;;;;;;31.77;24.75;;;25.00;52.80;;;;;;4849627;54;21068;-24
2022/09/13 16:48:53;;;;;;;32.53;25.67;;;25.00;52.90;;;;;;4835910;54;21004;-25
2022/09/13 16:53:54;;;;;;;32.60;25.25;;;25.00;53.10;;;;;;4815839;54;21497;-33
2022/09/13 16:58:55;;;;;;;30.20;24.58;;;25.00;53.00;;;;;;4800474;54;21019;-32
2022/09/13 17:03:56;;;;;;;29.02;24.20;;;25.00;53.10;;;;;;4825989;54;21016;-32
2022/09/13 17:09:00;;;;;;;29.37;23.95;;;25.00;53.20;;;;;;4809548;54;21050;-34
2022/09/13 17:14:04;;;;;;;29.08;23.95;;;25.00;53.20;;;;;;4795755;54;21096;-27
2022/09/13 17:19:10;;;;;;;31.30;24.73;;;25.00;53.40;;;;;;4812223;54;21760;-31
2022/09/13 17:24:11;;;;;;;28.87;23.15;;;25.00;53.40;;;;;;4809785;54;20996;-29
2022/09/13 17:29:13;;;;;;;29.67;24.00;;;25.00;53.40;;;;;;4805579;54;20980;-28
2022/09/13 17:34:14;;;;;;;29.02;23.38;;;25.00;53.40;;;;;;4795654;54;21012;-32
2022/09/13 17:39:15;;;;;;;31.95;23.92;;;25.00;53.50;;;;;;4817082;54;21071;-33
2022/09/13 17:44:16;;;;;;;28.45;23.92;;;24.90;53.40;;;;;;4808591;54;21011;-35
2022/09/13 17:49:16;;;;;;;28.52;22.80;;;24.90;53.60;;;;;;4810324;54;20992;-32
2022/09/13 17:54:17;;;;;;;29.80;23.85;;;24.90;53.70;;;;;;4795008;58;21051;-28
2022/09/13 17:59:20;;;;;;;29.83;23.62;;;24.90;53.70;;;;;;4813617;54;21008;-34
2022/09/13 18:04:22;;;;;;;27.87;22.58;;;25.00;53.80;;;;;;4818824;54;21075;-32
2022/09/13 18:09:26;;;;;;;26.33;22.13;;;24.90;53.80;;;;;;4795761;58;21071;-33
2022/09/13 18:14:27;;;;;;;29.10;22.05;;;24.90;53.90;;;;;;4795269;58;21544;-33
2022/09/13 18:19:27;;;;;;;25.98;22.40;;;24.90;54.10;;;;;;4805960;54;20996;-28
2022/09/13 18:24:28;;;;;;;25.62;21.12;;;24.90;54.00;;;;;;4811544;54;21008;-30
2022/09/13 18:29:31;;;;;;;25.80;21.10;;;24.90;54.70;;;;;;4804759;54;20984;-34
2022/09/13 18:34:32;;;;;;;25.92;22.08;;;24.90;54.10;;;;;;4809120;54;21557;-33
2022/09/13 18:39:33;;;;;;;24.55;21.35;;;24.90;54.20;;;;;;4795501;58;21103;-30
2022/09/13 18:44:34;;;;;;;27.42;21.27;;;24.90;54.30;;;;;;4801256;54;21011;-27
2022/09/13 18:49:34;;;;;;;25.52;21.05;;;24.90;54.30;;;;;;4798798;54;21063;-34
2022/09/13 18:54:35;;;;;;;25.20;20.80;;;24.90;54.40;;;;;;4801854;54;21071;-35
2022/09/13 18:59:36;;;;;;;25.17;20.25;;;24.90;54.40;;;;;;4802533;54;21474;-29
2022/09/13 19:04:37;;;;;;;27.20;21.50;;;24.90;54.50;;;;;;4823804;54;21004;-35
2022/09/13 19:09:38;;;;;;;25.25;20.20;;;24.90;54.60;;;;;;4798336;54;20984;-35
2022/09/13 19:14:39;;;;;;;23.08;20.02;;;24.90;54.60;;;;;;4804480;54;21470;-31
2022/09/13 19:19:39;;;;;;;23.35;19.75;;;24.90;54.60;;;;;;4801639;54;21489;-28
2022/09/13 19:24:40;;;;;;;24.02;19.55;;;24.90;54.80;;;;;;4805227;54;21134;-36
2022/09/13 19:29:41;;;;;;;23.73;20.30;;;24.90;54.70;;;;;;4795467;58;20988;-26
2022/09/13 19:34:42;;;;;;;23.12;19.35;;;24.90;54.70;;;;;;4800224;54;21043;-28
2022/09/13 19:39:43;;;;;;;21.40;18.85;;;24.90;54.70;;;;;;4811061;54;21501;-30
2022/09/13 19:44:43;;;;;;;20.37;17.87;;;24.90;54.70;;;;;;4797094;54;21043;-32
2022/09/13 19:49:44;;;;;;;22.85;17.98;;;24.90;54.90;;;;;;4794465;58;21042;-26
2022/09/13 19:54:45;;;;;;;22.95;17.87;;;24.90;54.80;;;;;;4833847;54;21123;-32
2022/09/13 19:59:46;;;;;;;22.50;18.45;;;24.90;54.90;;;;;;4795874;58;21497;-30
2022/09/13 20:04:50;;;;;;;22.10;18.15;;;24.90;55.00;;;;;;4795916;58;20999;-26
2022/09/13 20:09:51;;;;;;;21.55;17.90;;;24.90;54.90;;;;;;4795495;58;21016;-31
2022/09/13 20:14:52;;;;;;;23.10;17.92;;;24.90;54.80;;;;;;4804930;54;21569;-29
2022/09/13 20:19:53;;;;;;;19.17;17.08;;;24.90;54.90;;;;;;4795479;58;21068;-29
2022/09/13 20:24:53;;;;;;;23.80;17.55;;;24.90;55.00;;;;;;4807382;54;21044;-31
2022/09/13 20:29:56;;;;;;;20.23;16.98;;;24.90;54.90;;;;;;4807699;54;21004;-33
2022/09/13 20:34:56;;;;;;;21.12;16.65;;;24.90;55.00;;;;;;4805416;54;21545;-32
2022/09/13 20:40:01;;;;;;;19.25;16.08;;;24.90;55.00;;;;;;4795747;54;21000;-34
2022/09/13 20:45:04;;;;;;;20.15;15.90;;;24.90;55.00;;;;;;4798609;54;21613;-28
2022/09/13 20:50:05;;;;;;;18.83;15.38;;;24.90;55.10;;;;;;4816328;54;21450;-32
2022/09/13 20:55:08;;;;;;;17.58;15.68;;;24.90;55.00;;;;;;4795454;54;21032;-31
2022/09/13 21:00:10;;;;;;;17.00;14.87;;;24.90;55.10;;;;;;4815866;54;21008;-28
2022/09/13 21:05:11;;;;;;;17.65;15.02;;;24.90;55.10;;;;;;4801812;54;21489;-26
2022/09/13 21:10:13;;;;;;;18.65;14.60;;;24.90;55.00;;;;;;4831848;54;21050;-26
2022/09/13 21:15:14;;;;;;;17.60;14.70;;;24.90;55.10;;;;;;4802505;54;21629;-26
2022/09/13 21:20:15;;;;;;;16.17;13.85;;;24.80;55.10;;;;;;4806841;54;21087;-32
2022/09/13 21:25:15;;;;;;;17.80;14.90;;;24.90;55.90;;;;;;4824924;54;20991;-29
2022/09/13 21:30:16;;;;;;;17.80;14.15;;;24.90;55.20;;;;;;4819169;54;21043;-26
2022/09/13 21:35:17;;;;;;;16.67;13.77;;;24.90;55.20;;;;;;4807733;54;21004;-26
2022/09/13 21:40:18;;;;;;;16.02;13.90;;;24.80;55.10;;;;;;4798650;54;21473;-27
2022/09/13 21:45:22;;;;;;;16.92;14.32;;;24.80;55.20;;;;;;4847243;54;21063;-25
2022/09/13 21:50:23;;;;;;;15.40;13.80;;;24.80;55.20;;;;;;4806161;54;21505;-28
2022/09/13 21:55:25;;;;;;;16.92;13.90;;;24.90;55.30;;;;;;4796206;54;21032;-30
2022/09/13 22:00:26;;;;;;;16.48;13.50;;;24.80;55.20;;;;;;4798640;54;21960;-32
2022/09/13 22:05:27;;;;;;;15.05;13.35;;;24.80;55.30;;;;;;4804075;54;21027;-28
2022/09/13 22:10:28;;;;;;;15.52;13.32;;;24.90;55.30;;;;;;4795281;58;21072;-32
2022/09/13 22:15:28;;;;;;;16.73;13.20;;;24.80;55.40;;;;;;4840165;54;21501;-29
2022/09/13 22:20:29;;;;;;;16.83;13.27;;;24.80;55.40;;;;;;4794904;58;21058;-25
2022/09/13 22:25:30;;;;;;;14.35;12.23;;;24.80;55.90;;;;;;4838261;54;20988;-32
2022/09/13 22:30:34;;;;;;;14.73;12.52;;;24.80;55.50;;;;;;4815202;54;21494;-31
2022/09/13 22:35:35;;;;;;;15.15;12.73;;;24.80;55.50;;;;;;4811581;54;21681;-25
2022/09/13 22:40:36;;;;;;;15.43;12.65;;;24.80;56.00;;;;;;4813675;54;21131;-31
2022/09/13 22:45:37;;;;;;;15.23;12.57;;;24.80;55.60;;;;;;4795301;58;21561;-34
2022/09/13 22:50:38;;;;;;;13.00;11.70;;;24.80;55.60;;;;;;4807534;54;21542;-26
2022/09/13 22:55:39;;;;;;;14.77;12.30;;;24.80;55.60;;;;;;4841350;54;21059;-32
2022/09/13 23:00:41;;;;;;;15.45;11.65;;;24.80;55.60;;;;;;4811146;54;21039;-33
2022/09/13 23:05:50;;;;;;;13.88;11.65;;;24.80;55.60;;;;;;4824925;54;21076;-26
2022/09/13 23:10:51;;;;;;;13.13;11.75;;;24.80;55.60;;;;;;4830901;54;21482;-30
2022/09/13 23:15:52;;;;;;;13.70;11.60;;;24.80;55.70;;;;;;4812312;54;21047;-32
2022/09/13 23:20:56;;;;;;;14.02;11.52;;;24.80;55.60;;;;;;4795396;58;21062;-29
2022/09/13 23:26:09;;;;;;;13.10;11.55;;;24.80;55.90;;;;;;4810949;54;21541;-25
2022/09/13 23:31:23;;;;;;;12.98;11.02;;;24.80;55.80;;;;;;4801202;54;21104;-27
2022/09/13 23:36:27;;;;;;;14.90;11.30;;;24.80;55.90;;;;;;4839200;54;21143;-33
2022/09/13 23:41:29;;;;;;;13.23;11.43;;;24.80;55.80;;;;;;4796668;58;21577;-34
2022/09/13 23:46:30;;;;;;;12.93;11.05;;;24.80;55.90;;;;;;4798566;54;21684;-34
2022/09/13 23:51:31;;;;;;;11.60;10.40;;;24.80;55.80;;;;;;4795868;58;21007;-34
2022/09/13 23:56:33;;;;;;;12.27;10.68;;;24.80;55.90;;;;;;4829347;54;21063;-32
